createdAt,value
2023-04-28T00:00:31.920Z,63.75
2023-04-28T00:03:16.934Z,63.87
2023-04-28T00:05:44.097Z,63.35
2023-04-28T00:08:11.275Z,63.98
2023-04-28T00:10:38.233Z,64.26
2023-04-28T00:13:05.075Z,64.84
2023-04-28T00:15:31.906Z,65.06
2023-04-28T00:17:58.857Z,65.22
2023-04-28T00:20:25.674Z,65.33
2023-04-28T00:22:52.659Z,65.13
2023-04-28T00:25:19.546Z,66.05
2023-04-28T00:27:46.332Z,65.90
2023-04-28T00:30:13.176Z,66.19
2023-04-28T00:32:40.018Z,66.79
2023-04-28T00:35:07.060Z,66.22
2023-04-28T00:37:37.087Z,66.24
2023-04-28T00:40:04.053Z,66.22
2023-04-28T00:42:30.880Z,65.79
2023-04-28T00:44:57.775Z,65.22
2023-04-28T00:47:24.701Z,65.56
2023-04-28T00:49:52.601Z,66.97
2023-04-28T00:52:19.482Z,67.72
2023-04-28T00:54:47.251Z,67.67
2023-04-28T00:57:14.039Z,67.78
2023-04-28T00:59:41.018Z,67.96
2023-04-28T01:02:08.226Z,68.23
2023-04-28T01:04:35.638Z,68.09
2023-04-28T01:07:02.553Z,67.87
2023-04-28T01:09:29.511Z,68.24
2023-04-28T01:11:57.793Z,68.07
2023-04-28T01:14:39.717Z,67.97
2023-04-28T01:17:07.664Z,67.86
2023-04-28T01:19:34.635Z,67.80
2023-04-28T01:22:01.585Z,67.93
2023-04-28T01:24:28.478Z,67.82
2023-04-28T01:26:56.702Z,67.57
2023-04-28T01:29:23.519Z,68.08
2023-04-28T01:31:51.798Z,68.17
2023-04-28T01:34:18.865Z,68.30
2023-04-28T01:36:45.752Z,68.11
2023-04-28T01:39:13.179Z,68.06
2023-04-28T01:41:40.862Z,67.95
2023-04-28T01:44:07.961Z,67.99
2023-04-28T01:46:34.803Z,68.04
2023-04-28T01:49:01.701Z,67.97
2023-04-28T01:51:28.494Z,68.10
2023-04-28T01:53:55.413Z,67.64
2023-04-28T01:56:22.378Z,67.85
2023-04-28T01:58:49.652Z,67.50
2023-04-28T02:01:16.688Z,67.79
2023-04-28T02:03:44.339Z,67.95
2023-04-28T02:06:11.386Z,67.81
2023-04-28T02:08:38.237Z,68.03
2023-04-28T02:11:05.873Z,68.52
2023-04-28T02:13:32.778Z,70.61
2023-04-28T02:16:00.863Z,70.35
2023-04-28T02:18:28.028Z,69.95
2023-04-28T02:20:55.055Z,70.01
2023-04-28T02:23:22.349Z,69.99
2023-04-28T02:25:49.223Z,70.07
2023-04-28T02:28:15.989Z,69.97
2023-04-28T02:30:42.822Z,69.79
2023-04-28T02:33:09.684Z,69.97
2023-04-28T02:35:36.584Z,69.92
2023-04-28T02:38:03.445Z,69.80
2023-04-28T02:40:30.220Z,69.61
2023-04-28T02:42:56.969Z,69.85
2023-04-28T02:45:23.835Z,69.56
2023-04-28T02:47:50.916Z,69.67
2023-04-28T02:50:18.121Z,69.65
2023-04-28T02:52:44.982Z,69.76
2023-04-28T02:55:11.871Z,69.69
2023-04-28T02:57:38.598Z,69.73
2023-04-28T03:00:05.862Z,69.59
2023-04-28T03:02:38.358Z,69.66
2023-04-28T03:05:05.471Z,69.48
2023-04-28T03:07:32.479Z,69.76
2023-04-28T03:09:59.290Z,69.71
2023-04-28T03:12:26.136Z,69.54
2023-04-28T03:14:53.042Z,70.19
2023-04-28T03:17:20.246Z,70.24
2023-04-28T03:19:47.075Z,70.11
2023-04-28T03:22:14.156Z,70.11
2023-04-28T03:24:41.208Z,70.29
2023-04-28T03:27:08.349Z,70.25
2023-04-28T03:29:37.043Z,70.31
2023-04-28T03:32:04.262Z,70.40
2023-04-28T03:34:31.287Z,70.46
2023-04-28T03:36:58.313Z,70.46
2023-04-28T03:39:28.052Z,70.41
2023-04-28T03:41:54.851Z,70.43
2023-04-28T03:44:36.567Z,70.51
2023-04-28T03:47:03.551Z,70.58
2023-04-28T03:49:30.506Z,70.55
2023-04-28T03:51:57.649Z,70.49
2023-04-28T03:54:25.222Z,70.48
2023-04-28T03:56:52.075Z,70.39
2023-04-28T03:59:18.886Z,70.49
2023-04-28T04:01:45.806Z,70.46
2023-04-28T04:04:12.899Z,70.45
2023-04-28T04:06:40.282Z,70.49
2023-04-28T04:09:08.265Z,70.53
2023-04-28T04:11:35.029Z,70.54
2023-04-28T04:14:01.964Z,70.59
2023-04-28T04:16:29.565Z,70.50
2023-04-28T04:18:56.884Z,70.49
2023-04-28T04:21:31.226Z,70.75
2023-04-28T04:23:58.189Z,70.54
2023-04-28T04:26:25.169Z,70.67
2023-04-28T04:28:52.019Z,70.47
2023-04-28T04:31:22.028Z,70.38
2023-04-28T04:33:48.927Z,69.98
2023-04-28T04:36:15.956Z,70.00
2023-04-28T04:38:42.875Z,69.89
2023-04-28T04:41:13.816Z,69.86
2023-04-28T04:43:40.913Z,69.21
2023-04-28T04:46:08.090Z,68.79
2023-04-28T04:48:35.183Z,68.90
2023-04-28T04:51:02.410Z,68.35
2023-04-28T04:53:29.241Z,68.14
2023-04-28T04:55:56.424Z,68.01
2023-04-28T04:58:23.597Z,67.83
2023-04-28T05:01:09.048Z,67.52
2023-04-28T05:03:37.313Z,66.95
2023-04-28T05:06:04.277Z,67.30
2023-04-28T05:08:45.588Z,67.73
2023-04-28T05:11:12.918Z,67.56
2023-04-28T05:13:40.300Z,66.98
2023-04-28T05:16:07.485Z,67.00
2023-04-28T05:18:34.291Z,66.71
2023-04-28T05:21:01.264Z,66.76
2023-04-28T05:23:28.212Z,66.83
2023-04-28T05:25:55.678Z,66.75
2023-04-28T05:28:22.837Z,67.64
2023-04-28T05:30:52.442Z,66.95
2023-04-28T05:33:19.894Z,66.61
2023-04-28T05:35:47.301Z,66.28
2023-04-28T05:38:14.172Z,66.05
2023-04-28T05:40:42.249Z,65.59
2023-04-28T05:43:09.804Z,65.08
2023-04-28T05:45:37.391Z,63.91
2023-04-28T05:48:04.721Z,64.56
2023-04-28T05:50:31.730Z,64.07
2023-04-28T05:53:00.117Z,63.53
2023-04-28T05:55:27.678Z,64.08
2023-04-28T05:57:54.833Z,63.99
2023-04-28T06:00:22.151Z,63.36
2023-04-28T06:02:49.796Z,63.64
2023-04-28T06:05:17.677Z,63.81
2023-04-28T06:07:47.304Z,63.72
2023-04-28T06:10:16.380Z,63.66
2023-04-28T06:12:43.398Z,62.47
2023-04-28T06:15:10.873Z,62.12
2023-04-28T06:17:38.547Z,62.55
2023-04-28T06:20:06.215Z,62.84
2023-04-28T06:22:33.109Z,62.75
2023-04-28T06:25:00.108Z,62.59
2023-04-28T06:27:33.402Z,61.94
2023-04-28T06:30:00.539Z,61.21
2023-04-28T06:32:27.494Z,60.25
2023-04-28T06:34:55.735Z,59.91
2023-04-28T06:37:24.205Z,60.12
2023-04-28T06:39:51.010Z,59.38
2023-04-28T06:42:20.008Z,58.62
2023-04-28T06:44:54.643Z,58.31
2023-04-28T06:47:21.596Z,57.91
2023-04-28T06:49:49.720Z,57.89
2023-04-28T06:52:16.611Z,58.08
2023-04-28T06:54:43.569Z,57.62
2023-04-28T06:57:10.512Z,57.63
2023-04-28T06:59:37.774Z,57.71
2023-04-28T07:02:05.056Z,57.27
2023-04-28T07:04:32.088Z,57.93
2023-04-28T07:06:59.040Z,57.99
2023-04-28T07:09:26.017Z,57.81
2023-04-28T07:11:53.079Z,57.55
2023-04-28T07:14:20.296Z,57.09
2023-04-28T07:16:47.359Z,57.45
2023-04-28T07:19:14.508Z,57.08
2023-04-28T07:21:41.658Z,56.38
2023-04-28T07:24:08.509Z,56.19
2023-04-28T07:26:35.796Z,55.62
2023-04-28T07:29:02.739Z,53.84
2023-04-28T07:31:29.617Z,53.86
2023-04-28T07:33:56.524Z,54.79
2023-04-28T07:36:23.367Z,54.80
2023-04-28T07:38:50.414Z,53.55
2023-04-28T07:41:18.235Z,53.04
2023-04-28T07:43:45.148Z,50.16
2023-04-28T07:46:12.234Z,51.89
2023-04-28T07:48:39.156Z,50.59
2023-04-28T07:51:06.161Z,51.85
2023-04-28T07:53:33.257Z,51.63
2023-04-28T07:56:00.727Z,52.68
2023-04-28T07:58:27.778Z,50.55
2023-04-28T08:00:54.968Z,50.48
2023-04-28T08:03:22.085Z,50.48
2023-04-28T08:05:49.449Z,51.50
2023-04-28T08:08:16.600Z,50.71
2023-04-28T08:10:43.541Z,50.45
2023-04-28T08:13:10.392Z,49.41
2023-04-28T08:15:56.372Z,50.03
2023-04-28T08:18:23.454Z,49.69
2023-04-28T08:20:50.483Z,47.83
2023-04-28T08:23:17.432Z,46.76
2023-04-28T08:25:44.426Z,47.28
2023-04-28T08:28:11.440Z,48.28
2023-04-28T08:30:38.588Z,46.97
2023-04-28T08:33:07.404Z,47.15
2023-04-28T08:35:34.668Z,47.12
2023-04-28T08:38:01.698Z,47.07
2023-04-28T08:40:31.103Z,46.97
2023-04-28T08:42:59.415Z,47.19
2023-04-28T08:45:29.626Z,45.89
2023-04-28T08:47:59.711Z,46.38
2023-04-28T08:50:29.045Z,44.84
2023-04-28T08:52:56.401Z,44.16
2023-04-28T08:55:24.468Z,42.57
2023-04-28T08:57:51.468Z,44.11
2023-04-28T09:00:18.416Z,40.81
2023-04-28T09:02:45.729Z,41.80
2023-04-28T09:05:13.759Z,42.99
2023-04-28T09:07:41.224Z,40.22
2023-04-28T09:10:22.052Z,40.22
2023-04-28T09:12:53.107Z,37.20
2023-04-28T09:15:26.895Z,39.76
2023-04-28T09:17:54.002Z,39.74
2023-04-28T09:20:22.334Z,38.69
2023-04-28T09:22:50.133Z,36.15
2023-04-28T09:25:17.971Z,38.30
2023-04-28T09:27:44.757Z,39.49
2023-04-28T09:30:12.297Z,35.66
2023-04-28T09:32:39.412Z,36.62
2023-04-28T09:35:07.039Z,35.87
2023-04-28T09:37:34.946Z,36.99
2023-04-28T09:40:08.871Z,37.32
2023-04-28T09:42:39.605Z,37.32
2023-04-28T09:45:10.792Z,37.16
2023-04-28T09:47:47.704Z,36.88
2023-04-28T09:50:16.922Z,36.95
2023-04-28T09:52:46.327Z,34.67
2023-04-28T09:55:13.679Z,35.57
2023-04-28T09:57:40.982Z,35.11
2023-04-28T10:00:08.697Z,34.45
2023-04-28T10:05:11.119Z,34.55
2023-04-28T10:07:38.841Z,35.31
2023-04-28T10:10:06.641Z,34.47
2023-04-28T10:12:34.663Z,35.07
2023-04-28T10:15:02.225Z,33.60
2023-04-28T10:17:29.397Z,34.09
2023-04-28T10:19:57.028Z,33.97
2023-04-28T10:22:23.833Z,33.18
2023-04-28T10:25:06.412Z,33.88
2023-04-28T10:27:34.454Z,34.14
2023-04-28T10:30:22.817Z,34.39
2023-04-28T10:33:14.414Z,34.10
2023-04-28T10:35:43.057Z,34.08
2023-04-28T10:38:14.613Z,33.63
2023-04-28T10:40:49.339Z,33.34
2023-04-28T10:43:19.564Z,32.90
2023-04-28T10:45:56.102Z,33.72
2023-04-28T10:48:33.839Z,33.71
2023-04-28T10:51:04.463Z,33.29
2023-04-28T10:53:44.198Z,33.29
2023-04-28T10:56:19.054Z,33.42
2023-04-28T10:58:47.191Z,32.98
2023-04-28T11:01:26.017Z,33.57
2023-04-28T11:04:13.079Z,34.24
2023-04-28T11:06:41.166Z,34.40
2023-04-28T11:09:14.294Z,33.68
2023-04-28T11:11:59.909Z,33.97
2023-04-28T11:14:36.752Z,34.01
2023-04-28T11:17:07.913Z,33.87
2023-04-28T11:19:45.302Z,34.41
2023-04-28T11:22:16.745Z,35.01
2023-04-28T11:25:03.950Z,33.13
2023-04-28T11:27:32.387Z,33.68
2023-04-28T11:30:00.864Z,34.38
2023-04-28T11:32:31.993Z,34.95
2023-04-28T11:34:59.129Z,34.42
2023-04-28T11:37:27.503Z,33.72
2023-04-28T11:39:54.558Z,34.29
2023-04-28T11:42:21.501Z,33.77
2023-04-28T11:44:55.235Z,33.16
2023-04-28T11:47:29.435Z,33.93
2023-04-28T11:49:57.397Z,33.32
2023-04-28T11:52:26.920Z,33.18
2023-04-28T11:54:57.603Z,33.45
2023-04-28T11:57:25.005Z,32.06
2023-04-28T11:59:52.164Z,33.85
2023-04-28T12:02:31.592Z,33.43
2023-04-28T12:05:05.485Z,32.37
2023-04-28T12:07:41.726Z,33.56
2023-04-28T12:10:19.359Z,32.26
2023-04-28T12:12:52.423Z,33.37
2023-04-28T12:15:21.654Z,32.41
2023-04-28T12:17:50.042Z,32.90
2023-04-28T12:20:36.856Z,33.26
2023-04-28T12:23:04.939Z,32.61
2023-04-28T12:25:33.612Z,32.88
2023-04-28T12:28:07.490Z,33.24
2023-04-28T12:30:38.719Z,32.73
2023-04-28T12:33:07.548Z,33.45
2023-04-28T12:35:34.316Z,33.11
2023-04-28T12:38:01.156Z,33.02
2023-04-28T12:40:28.232Z,32.18
2023-04-28T12:42:56.114Z,31.57
2023-04-28T12:45:22.906Z,31.89
2023-04-28T12:47:49.757Z,32.32
2023-04-28T12:50:16.686Z,32.31
2023-04-28T12:52:43.586Z,31.88
2023-04-28T12:55:10.530Z,31.68
2023-04-28T12:57:39.553Z,31.77
2023-04-28T13:00:07.898Z,31.62
2023-04-28T13:02:35.330Z,32.27
2023-04-28T13:05:02.673Z,32.57
2023-04-28T13:07:29.979Z,32.37
2023-04-28T13:09:57.667Z,32.01
2023-04-28T13:12:24.822Z,31.64
2023-04-28T13:14:51.881Z,32.10
2023-04-28T13:17:18.674Z,32.08
2023-04-28T13:19:45.906Z,31.67
2023-04-28T13:22:13.342Z,31.83
2023-04-28T13:24:40.341Z,31.72
2023-04-28T13:27:09.200Z,31.73
2023-04-28T13:29:36.449Z,31.97
2023-04-28T13:32:05.166Z,32.17
2023-04-28T13:34:32.416Z,30.67
2023-04-28T13:36:59.345Z,32.27
2023-04-28T13:39:26.502Z,31.97
2023-04-28T13:41:53.462Z,32.01
2023-04-28T13:44:21.016Z,31.62
2023-04-28T13:46:48.179Z,32.06
2023-04-28T13:49:15.439Z,32.16
2023-04-28T13:51:42.378Z,31.82
2023-04-28T13:54:10.967Z,32.27
2023-04-28T13:56:38.020Z,32.59
2023-04-28T13:59:04.982Z,32.11
2023-04-28T14:01:32.174Z,31.99
2023-04-28T14:03:59.244Z,32.09
2023-04-28T14:06:26.947Z,32.20
2023-04-28T14:08:53.924Z,32.72
2023-04-28T14:11:21.156Z,33.29
2023-04-28T14:13:48.239Z,32.36
2023-04-28T14:16:15.434Z,32.41
2023-04-28T14:18:42.417Z,33.28
2023-04-28T14:21:09.573Z,32.84
2023-04-28T14:23:37.448Z,32.28
2023-04-28T14:26:04.398Z,32.61
2023-04-28T14:28:31.351Z,32.48
2023-04-28T14:31:02.930Z,32.91
2023-04-28T14:33:29.955Z,32.31
2023-04-28T14:35:56.914Z,32.85
2023-04-28T14:38:23.961Z,32.85
2023-04-28T14:40:51.220Z,32.38
2023-04-28T14:43:18.106Z,32.46
2023-04-28T14:45:45.052Z,32.37
2023-04-28T14:48:12.891Z,32.82
2023-04-28T14:50:40.457Z,32.94
2023-04-28T14:53:07.860Z,33.47
2023-04-28T14:55:34.784Z,33.29
2023-04-28T14:58:02.356Z,33.98
2023-04-28T15:00:29.848Z,33.70
2023-04-28T15:02:57.251Z,33.23
2023-04-28T15:05:24.217Z,32.90
2023-04-28T15:07:51.266Z,32.86
2023-04-28T15:10:18.184Z,33.71
2023-04-28T15:12:45.174Z,33.87
2023-04-28T15:15:12.535Z,33.89
2023-04-28T15:17:39.722Z,33.30
2023-04-28T15:20:07.690Z,33.24
2023-04-28T15:22:36.041Z,33.53
2023-04-28T15:25:03.207Z,33.26
2023-04-28T15:27:30.158Z,33.85
2023-04-28T15:29:57.501Z,34.11
2023-04-28T15:32:24.892Z,34.45
2023-04-28T15:34:52.422Z,34.68
2023-04-28T15:37:52.855Z,33.98
2023-04-28T15:40:20.428Z,34.63
2023-04-28T15:42:52.588Z,34.82
2023-04-28T15:45:20.657Z,35.08
2023-04-28T15:47:49.701Z,35.36
2023-04-28T15:50:18.792Z,35.24
2023-04-28T15:52:47.380Z,35.42
2023-04-28T15:55:15.012Z,35.68
2023-04-28T15:57:42.483Z,35.77
2023-04-28T16:00:10.861Z,35.68
2023-04-28T16:02:38.701Z,35.88
2023-04-28T16:05:06.832Z,35.98
2023-04-28T16:07:40.520Z,35.98
2023-04-28T16:10:09.301Z,36.03
2023-04-28T16:12:36.785Z,35.83
2023-04-28T16:15:04.342Z,36.30
2023-04-28T16:17:33.458Z,36.60
2023-04-28T16:20:00.494Z,36.85
2023-04-28T16:22:30.517Z,36.79
2023-04-28T16:24:59.921Z,37.03
2023-04-28T16:27:27.000Z,36.47
2023-04-28T16:29:54.029Z,36.60
2023-04-28T16:32:21.345Z,36.48
2023-04-28T16:34:48.862Z,36.65
2023-04-28T16:37:16.107Z,36.74
2023-04-28T16:39:42.975Z,36.82
2023-04-28T16:42:10.287Z,37.36
2023-04-28T16:44:37.476Z,37.87
2023-04-28T16:47:04.934Z,37.77
2023-04-28T16:49:31.910Z,37.83
2023-04-28T16:52:00.093Z,37.91
2023-04-28T16:54:27.843Z,38.34
2023-04-28T16:56:55.195Z,38.74
2023-04-28T16:59:22.456Z,38.66
2023-04-28T17:01:49.433Z,38.85
2023-04-28T17:04:16.957Z,38.85
2023-04-28T17:06:44.739Z,38.99
2023-04-28T17:09:12.099Z,39.28
2023-04-28T17:11:39.058Z,39.37
2023-04-28T17:14:06.570Z,39.56
2023-04-28T17:16:34.084Z,39.88
2023-04-28T17:19:01.956Z,40.40
2023-04-28T17:21:29.464Z,40.43
2023-04-28T17:23:59.843Z,40.85
2023-04-28T17:26:27.512Z,41.28
2023-04-28T17:29:01.829Z,41.54
2023-04-28T17:31:29.147Z,42.16
2023-04-28T17:33:57.574Z,42.81
2023-04-28T17:36:28.105Z,43.22
2023-04-28T17:38:55.362Z,43.53
2023-04-28T17:41:22.735Z,44.10
2023-04-28T17:43:53.062Z,44.21
2023-04-28T17:46:20.543Z,44.69
2023-04-28T17:48:47.571Z,45.12
2023-04-28T17:51:14.828Z,45.41
2023-04-28T17:53:42.367Z,45.99
2023-04-28T17:56:09.454Z,46.04
2023-04-28T17:58:36.910Z,46.32
2023-04-28T18:01:04.682Z,46.46
2023-04-28T18:03:33.545Z,47.01
2023-04-28T18:06:00.859Z,47.35
2023-04-28T18:08:27.886Z,47.48
2023-04-28T18:10:55.964Z,47.37
2023-04-28T18:13:22.913Z,47.75
2023-04-28T18:15:50.109Z,48.07
2023-04-28T18:18:17.228Z,48.41
2023-04-28T18:20:44.282Z,48.77
2023-04-28T18:23:11.576Z,48.61
2023-04-28T18:25:38.904Z,48.99
2023-04-28T18:28:07.529Z,49.26
2023-04-28T18:30:40.082Z,49.33
2023-04-28T18:33:07.514Z,49.15
2023-04-28T18:35:37.647Z,49.40
2023-04-28T18:38:05.621Z,49.56
2023-04-28T18:40:33.706Z,49.70
2023-04-28T18:43:01.774Z,50.07
2023-04-28T18:45:33.824Z,50.14
2023-04-28T18:48:01.808Z,49.92
2023-04-28T18:50:29.594Z,49.92
2023-04-28T18:52:57.254Z,50.32
2023-04-28T18:55:24.513Z,50.22
2023-04-28T18:57:52.489Z,50.26
2023-04-28T19:00:20.174Z,50.03
2023-04-28T19:02:47.375Z,50.23
2023-04-28T19:05:14.566Z,50.35
2023-04-28T19:07:41.726Z,50.12
2023-04-28T19:10:08.890Z,50.26
2023-04-28T19:12:36.040Z,50.39
2023-04-28T19:15:04.328Z,50.54
2023-04-28T19:17:31.487Z,50.71
2023-04-28T19:19:58.532Z,51.31
2023-04-28T19:22:36.223Z,51.56
2023-04-28T19:25:04.802Z,51.66
2023-04-28T19:27:32.582Z,51.70
2023-04-28T19:30:00.757Z,51.85
2023-04-28T19:32:28.043Z,52.21
2023-04-28T19:34:55.071Z,51.94
2023-04-28T19:37:22.233Z,51.81
2023-04-28T19:39:50.639Z,51.78
2023-04-28T19:42:17.870Z,52.28
2023-04-28T19:44:45.845Z,52.74
2023-04-28T19:47:13.136Z,53.04
2023-04-28T19:49:43.026Z,53.27
2023-04-28T19:52:10.000Z,53.76
2023-04-28T19:54:38.254Z,53.83
2023-04-28T19:57:05.262Z,53.96
2023-04-28T19:59:32.151Z,54.54
2023-04-28T20:01:59.632Z,54.66
2023-04-28T20:04:28.586Z,54.98
2023-04-28T20:06:55.667Z,55.11
2023-04-28T20:09:22.620Z,55.16
2023-04-28T20:11:49.566Z,55.27
2023-04-28T20:14:16.312Z,55.55
2023-04-28T20:16:44.087Z,55.80
2023-04-28T20:19:11.269Z,55.92
2023-04-28T20:21:39.117Z,56.15
2023-04-28T20:24:06.677Z,56.17
2023-04-28T20:26:34.043Z,56.38
2023-04-28T20:29:00.988Z,56.58
2023-04-28T20:31:28.084Z,56.82
2023-04-28T20:33:55.550Z,56.97
2023-04-28T20:36:22.464Z,57.09
2023-04-28T20:38:49.509Z,57.18
2023-04-28T20:41:16.471Z,57.21
2023-04-28T20:43:43.868Z,57.29
2023-04-28T20:46:12.833Z,57.28
2023-04-28T20:48:40.078Z,57.46
2023-04-28T20:51:07.553Z,57.85
2023-04-28T20:53:34.527Z,58.64
2023-04-28T20:56:01.949Z,58.64
2023-04-28T20:58:30.345Z,58.81
2023-04-28T21:00:57.335Z,58.93
2023-04-28T21:03:25.128Z,58.88
2023-04-28T21:05:52.221Z,58.81
2023-04-28T21:08:19.366Z,58.90
2023-04-28T21:10:46.315Z,58.82
2023-04-28T21:13:13.684Z,58.87
2023-04-28T21:15:41.146Z,59.10
2023-04-28T21:18:08.180Z,59.33
2023-04-28T21:20:35.247Z,59.55
2023-04-28T21:23:02.405Z,59.38
2023-04-28T21:25:29.559Z,59.56
2023-04-28T21:27:56.513Z,59.79
2023-04-28T21:30:23.666Z,59.76
2023-04-28T21:32:50.644Z,59.75
2023-04-28T21:35:17.710Z,59.86
2023-04-28T21:37:45.030Z,59.80
2023-04-28T21:40:13.003Z,60.23
2023-04-28T21:42:39.956Z,60.32
2023-04-28T21:45:08.874Z,60.26
2023-04-28T21:47:35.835Z,60.87
2023-04-28T21:50:03.375Z,61.45
2023-04-28T21:52:30.833Z,62.33
2023-04-28T21:54:58.623Z,61.87
2023-04-28T21:57:25.554Z,61.29
2023-04-28T21:59:52.888Z,61.21
2023-04-28T22:02:20.008Z,61.11
2023-04-28T22:04:47.216Z,61.32
2023-04-28T22:07:14.178Z,61.62
2023-04-28T22:09:41.119Z,61.28
2023-04-28T22:12:07.979Z,61.76
2023-04-28T22:14:41.087Z,61.45
2023-04-28T22:17:08.951Z,61.65
2023-04-28T22:19:36.294Z,61.55
2023-04-28T22:22:03.285Z,61.65
2023-04-28T22:24:30.103Z,62.04
2023-04-28T22:26:57.863Z,61.80
2023-04-28T22:29:25.739Z,62.09
2023-04-28T22:31:53.097Z,62.30
2023-04-28T22:34:21.072Z,61.94
2023-04-28T22:36:48.042Z,61.99
2023-04-28T22:39:15.174Z,62.53
2023-04-28T22:41:42.231Z,61.88
2023-04-28T22:44:09.821Z,62.13
2023-04-28T22:46:36.774Z,62.21
2023-04-28T22:49:04.521Z,62.50
2023-04-28T22:51:31.474Z,62.89
2023-04-28T22:53:58.521Z,62.35
2023-04-28T22:56:25.982Z,62.32
2023-04-28T22:58:52.859Z,62.37
2023-04-28T23:01:19.923Z,62.40
2023-04-28T23:03:50.235Z,62.74
2023-04-28T23:06:17.266Z,62.53
2023-04-28T23:08:44.220Z,62.79
2023-04-28T23:11:11.266Z,63.10
2023-04-28T23:13:38.324Z,62.69
2023-04-28T23:16:05.598Z,62.53
2023-04-28T23:18:32.791Z,62.81
2023-04-28T23:20:59.782Z,62.76
2023-04-28T23:23:26.750Z,63.13
2023-04-28T23:25:55.223Z,63.08
2023-04-28T23:28:22.085Z,63.19
2023-04-28T23:30:49.026Z,63.30
2023-04-28T23:33:16.078Z,63.16
2023-04-28T23:35:43.140Z,63.27
2023-04-28T23:38:10.078Z,63.35
2023-04-28T23:40:37.131Z,63.85
2023-04-28T23:43:04.099Z,63.86
2023-04-28T23:45:31.171Z,63.71
2023-04-28T23:47:58.219Z,63.93
2023-04-28T23:50:27.320Z,64.16
2023-04-28T23:52:54.253Z,64.01
2023-04-28T23:55:21.294Z,64.68
2023-04-28T23:57:48.354Z,64.24
